sensor_id;sensor_type;location;lat;lon;timestamp;P1;durP1;ratioP1;P2;durP2;ratioP2
12437;SDS011;6283;51.330;12.374;2023-04-25T00:00:35;6.43;;;4.63;;
12437;SDS011;6283;51.330;12.374;2023-04-25T00:03:00;5.20;;;4.60;;
12437;SDS011;6283;51.330;12.374;2023-04-25T00:05:26;7.07;;;4.60;;
12437;SDS011;6283;51.330;12.374;2023-04-25T00:07:52;5.73;;;4.00;;
12437;SDS011;6283;51.330;12.374;2023-04-25T00:10:18;6.60;;;3.93;;
12437;SDS011;6283;51.330;12.374;2023-04-25T00:12:45;3.13;;;2.93;;
12437;SDS011;6283;51.330;12.374;2023-04-25T00:15:11;4.43;;;3.43;;
12437;SDS011;6283;51.330;12.374;2023-04-25T00:17:37;5.60;;;3.53;;
12437;SDS011;6283;51.330;12.374;2023-04-25T00:20:03;5.13;;;3.53;;
12437;SDS011;6283;51.330;12.374;2023-04-25T00:22:38;5.17;;;3.80;;
12437;SDS011;6283;51.330;12.374;2023-04-25T00:25:04;5.63;;;3.93;;
12437;SDS011;6283;51.330;12.374;2023-04-25T00:27:31;6.00;;;3.80;;
12437;SDS011;6283;51.330;12.374;2023-04-25T00:29:57;6.77;;;4.37;;
12437;SDS011;6283;51.330;12.374;2023-04-25T00:32:22;5.70;;;4.43;;
12437;SDS011;6283;51.330;12.374;2023-04-25T00:34:48;5.43;;;4.57;;
12437;SDS011;6283;51.330;12.374;2023-04-25T00:37:14;6.17;;;4.27;;
12437;SDS011;6283;51.330;12.374;2023-04-25T00:39:39;6.80;;;4.90;;
12437;SDS011;6283;51.330;12.374;2023-04-25T00:42:05;6.87;;;4.97;;
12437;SDS011;6283;51.330;12.374;2023-04-25T00:44:31;7.17;;;5.20;;
12437;SDS011;6283;51.330;12.374;2023-04-25T00:46:58;8.00;;;4.80;;
12437;SDS011;6283;51.330;12.374;2023-04-25T00:49:26;7.43;;;4.70;;
12437;SDS011;6283;51.330;12.374;2023-04-25T00:51:52;6.23;;;4.13;;
12437;SDS011;6283;51.330;12.374;2023-04-25T00:54:17;6.73;;;5.07;;
12437;SDS011;6283;51.330;12.374;2023-04-25T00:56:43;5.07;;;4.27;;
12437;SDS011;6283;51.330;12.374;2023-04-25T00:59:10;8.00;;;5.07;;
12437;SDS011;6283;51.330;12.374;2023-04-25T01:01:36;6.00;;;4.73;;
12437;SDS011;6283;51.330;12.374;2023-04-25T01:04:04;6.77;;;4.70;;
12437;SDS011;6283;51.330;12.374;2023-04-25T01:06:30;6.33;;;4.80;;
12437;SDS011;6283;51.330;12.374;2023-04-25T01:08:56;8.23;;;5.13;;
12437;SDS011;6283;51.330;12.374;2023-04-25T01:11:23;5.97;;;4.77;;
12437;SDS011;6283;51.330;12.374;2023-04-25T01:13:49;7.23;;;5.40;;
12437;SDS011;6283;51.330;12.374;2023-04-25T01:16:15;7.20;;;5.47;;
12437;SDS011;6283;51.330;12.374;2023-04-25T01:18:41;5.73;;;4.93;;
12437;SDS011;6283;51.330;12.374;2023-04-25T01:21:11;6.50;;;5.13;;
12437;SDS011;6283;51.330;12.374;2023-04-25T01:23:38;6.90;;;5.00;;
12437;SDS011;6283;51.330;12.374;2023-04-25T01:26:05;7.07;;;5.03;;
12437;SDS011;6283;51.330;12.374;2023-04-25T01:28:33;5.47;;;4.70;;
12437;SDS011;6283;51.330;12.374;2023-04-25T01:31:00;7.80;;;4.63;;
12437;SDS011;6283;51.330;12.374;2023-04-25T01:33:26;7.03;;;4.97;;
12437;SDS011;6283;51.330;12.374;2023-04-25T01:35:52;6.47;;;5.00;;
12437;SDS011;6283;51.330;12.374;2023-04-25T01:38:17;7.70;;;5.33;;
12437;SDS011;6283;51.330;12.374;2023-04-25T01:40:44;6.90;;;4.63;;
12437;SDS011;6283;51.330;12.374;2023-04-25T01:43:12;9.13;;;5.10;;
12437;SDS011;6283;51.330;12.374;2023-04-25T01:45:39;7.83;;;4.77;;
12437;SDS011;6283;51.330;12.374;2023-04-25T01:48:06;7.57;;;4.57;;
12437;SDS011;6283;51.330;12.374;2023-04-25T01:50:33;7.83;;;4.70;;
12437;SDS011;6283;51.330;12.374;2023-04-25T01:52:59;7.20;;;4.83;;
12437;SDS011;6283;51.330;12.374;2023-04-25T01:55:25;8.03;;;4.90;;
12437;SDS011;6283;51.330;12.374;2023-04-25T01:57:51;5.27;;;4.77;;
12437;SDS011;6283;51.330;12.374;2023-04-25T02:00:17;5.27;;;4.60;;
12437;SDS011;6283;51.330;12.374;2023-04-25T02:02:43;7.20;;;4.70;;
12437;SDS011;6283;51.330;12.374;2023-04-25T02:05:08;8.03;;;4.33;;
12437;SDS011;6283;51.330;12.374;2023-04-25T02:07:34;6.27;;;4.33;;
12437;SDS011;6283;51.330;12.374;2023-04-25T02:10:00;8.20;;;4.87;;
12437;SDS011;6283;51.330;12.374;2023-04-25T02:12:26;7.37;;;4.90;;
12437;SDS011;6283;51.330;12.374;2023-04-25T02:14:52;8.40;;;4.73;;
12437;SDS011;6283;51.330;12.374;2023-04-25T02:17:18;7.73;;;4.40;;
12437;SDS011;6283;51.330;12.374;2023-04-25T02:19:44;6.90;;;5.07;;
12437;SDS011;6283;51.330;12.374;2023-04-25T02:22:09;6.47;;;4.13;;
12437;SDS011;6283;51.330;12.374;2023-04-25T02:24:35;6.70;;;4.23;;
12437;SDS011;6283;51.330;12.374;2023-04-25T02:27:01;6.53;;;4.90;;
12437;SDS011;6283;51.330;12.374;2023-04-25T02:29:27;6.87;;;4.93;;
12437;SDS011;6283;51.330;12.374;2023-04-25T02:31:53;6.60;;;4.83;;
12437;SDS011;6283;51.330;12.374;2023-04-25T02:34:19;5.30;;;4.30;;
12437;SDS011;6283;51.330;12.374;2023-04-25T02:36:45;8.07;;;5.13;;
12437;SDS011;6283;51.330;12.374;2023-04-25T02:39:11;8.13;;;5.30;;
12437;SDS011;6283;51.330;12.374;2023-04-25T02:41:36;7.23;;;4.63;;
12437;SDS011;6283;51.330;12.374;2023-04-25T02:44:02;6.60;;;4.70;;
12437;SDS011;6283;51.330;12.374;2023-04-25T02:46:28;8.90;;;5.33;;
12437;SDS011;6283;51.330;12.374;2023-04-25T02:48:53;5.67;;;4.60;;
12437;SDS011;6283;51.330;12.374;2023-04-25T02:51:19;10.20;;;4.73;;
12437;SDS011;6283;51.330;12.374;2023-04-25T02:53:44;9.70;;;5.07;;
12437;SDS011;6283;51.330;12.374;2023-04-25T02:56:10;8.17;;;4.93;;
12437;SDS011;6283;51.330;12.374;2023-04-25T02:58:35;7.73;;;5.47;;
12437;SDS011;6283;51.330;12.374;2023-04-25T03:01:01;7.20;;;5.63;;
12437;SDS011;6283;51.330;12.374;2023-04-25T03:03:27;7.50;;;4.90;;
12437;SDS011;6283;51.330;12.374;2023-04-25T03:05:52;6.77;;;5.23;;
12437;SDS011;6283;51.330;12.374;2023-04-25T03:08:18;7.97;;;4.97;;
12437;SDS011;6283;51.330;12.374;2023-04-25T03:10:44;9.27;;;5.43;;
12437;SDS011;6283;51.330;12.374;2023-04-25T03:13:10;5.87;;;5.10;;
12437;SDS011;6283;51.330;12.374;2023-04-25T03:15:36;6.33;;;5.23;;
12437;SDS011;6283;51.330;12.374;2023-04-25T03:18:03;8.27;;;5.27;;
12437;SDS011;6283;51.330;12.374;2023-04-25T03:20:28;7.60;;;5.30;;
12437;SDS011;6283;51.330;12.374;2023-04-25T03:22:54;6.43;;;4.67;;
12437;SDS011;6283;51.330;12.374;2023-04-25T03:25:20;9.13;;;5.57;;
12437;SDS011;6283;51.330;12.374;2023-04-25T03:27:49;8.53;;;5.30;;
12437;SDS011;6283;51.330;12.374;2023-04-25T03:30:14;7.17;;;4.80;;
12437;SDS011;6283;51.330;12.374;2023-04-25T03:32:40;6.57;;;5.17;;
12437;SDS011;6283;51.330;12.374;2023-04-25T03:35:06;11.33;;;4.97;;
12437;SDS011;6283;51.330;12.374;2023-04-25T03:37:31;6.27;;;4.80;;
12437;SDS011;6283;51.330;12.374;2023-04-25T03:39:57;7.33;;;5.03;;
12437;SDS011;6283;51.330;12.374;2023-04-25T03:42:23;8.00;;;5.00;;
12437;SDS011;6283;51.330;12.374;2023-04-25T03:44:49;7.77;;;5.33;;
12437;SDS011;6283;51.330;12.374;2023-04-25T03:47:14;9.90;;;4.80;;
12437;SDS011;6283;51.330;12.374;2023-04-25T03:49:40;8.47;;;5.03;;
12437;SDS011;6283;51.330;12.374;2023-04-25T03:52:06;8.57;;;5.27;;
12437;SDS011;6283;51.330;12.374;2023-04-25T03:54:32;5.73;;;5.10;;
12437;SDS011;6283;51.330;12.374;2023-04-25T03:56:57;8.23;;;4.93;;
12437;SDS011;6283;51.330;12.374;2023-04-25T03:59:23;7.90;;;4.53;;
12437;SDS011;6283;51.330;12.374;2023-04-25T04:01:50;7.87;;;5.50;;
12437;SDS011;6283;51.330;12.374;2023-04-25T04:04:15;10.53;;;5.80;;
12437;SDS011;6283;51.330;12.374;2023-04-25T04:06:41;6.70;;;4.60;;
12437;SDS011;6283;51.330;12.374;2023-04-25T04:09:07;9.53;;;5.20;;
12437;SDS011;6283;51.330;12.374;2023-04-25T04:11:36;13.37;;;6.00;;
12437;SDS011;6283;51.330;12.374;2023-04-25T04:14:03;10.53;;;6.53;;
12437;SDS011;6283;51.330;12.374;2023-04-25T04:16:32;11.23;;;6.17;;
12437;SDS011;6283;51.330;12.374;2023-04-25T04:18:58;13.73;;;5.67;;
12437;SDS011;6283;51.330;12.374;2023-04-25T04:21:23;10.27;;;6.07;;
12437;SDS011;6283;51.330;12.374;2023-04-25T04:23:49;7.00;;;5.83;;
12437;SDS011;6283;51.330;12.374;2023-04-25T04:26:15;10.97;;;6.13;;
12437;SDS011;6283;51.330;12.374;2023-04-25T04:28:43;8.53;;;5.67;;
12437;SDS011;6283;51.330;12.374;2023-04-25T04:31:12;9.23;;;6.13;;
12437;SDS011;6283;51.330;12.374;2023-04-25T04:33:37;13.67;;;6.53;;
12437;SDS011;6283;51.330;12.374;2023-04-25T04:36:03;13.00;;;6.73;;
12437;SDS011;6283;51.330;12.374;2023-04-25T04:38:29;13.37;;;6.57;;
12437;SDS011;6283;51.330;12.374;2023-04-25T04:40:55;12.17;;;6.40;;
12437;SDS011;6283;51.330;12.374;2023-04-25T04:43:22;11.20;;;6.33;;
12437;SDS011;6283;51.330;12.374;2023-04-25T04:45:48;12.47;;;6.20;;
12437;SDS011;6283;51.330;12.374;2023-04-25T04:48:14;9.10;;;6.40;;
12437;SDS011;6283;51.330;12.374;2023-04-25T04:50:40;8.23;;;5.90;;
12437;SDS011;6283;51.330;12.374;2023-04-25T04:53:09;14.73;;;6.40;;
12437;SDS011;6283;51.330;12.374;2023-04-25T04:55:35;10.13;;;6.13;;
12437;SDS011;6283;51.330;12.374;2023-04-25T04:58:01;7.70;;;5.50;;
12437;SDS011;6283;51.330;12.374;2023-04-25T05:00:26;10.70;;;6.20;;
12437;SDS011;6283;51.330;12.374;2023-04-25T05:02:54;13.30;;;6.83;;
12437;SDS011;6283;51.330;12.374;2023-04-25T05:05:20;8.67;;;5.97;;
12437;SDS011;6283;51.330;12.374;2023-04-25T05:07:46;10.13;;;5.83;;
12437;SDS011;6283;51.330;12.374;2023-04-25T05:10:11;11.20;;;6.53;;
12437;SDS011;6283;51.330;12.374;2023-04-25T05:12:37;9.03;;;6.07;;
12437;SDS011;6283;51.330;12.374;2023-04-25T05:15:03;12.13;;;6.40;;
12437;SDS011;6283;51.330;12.374;2023-04-25T05:17:28;9.70;;;6.53;;
12437;SDS011;6283;51.330;12.374;2023-04-25T05:19:54;8.67;;;6.23;;
12437;SDS011;6283;51.330;12.374;2023-04-25T05:22:20;10.47;;;7.13;;
12437;SDS011;6283;51.330;12.374;2023-04-25T05:24:46;10.00;;;6.30;;
12437;SDS011;6283;51.330;12.374;2023-04-25T05:27:13;8.70;;;6.57;;
12437;SDS011;6283;51.330;12.374;2023-04-25T05:29:38;9.67;;;6.27;;
12437;SDS011;6283;51.330;12.374;2023-04-25T05:32:05;10.03;;;6.40;;
12437;SDS011;6283;51.330;12.374;2023-04-25T05:34:30;12.17;;;6.87;;
12437;SDS011;6283;51.330;12.374;2023-04-25T05:36:56;8.50;;;6.50;;
12437;SDS011;6283;51.330;12.374;2023-04-25T05:39:22;10.97;;;6.63;;
12437;SDS011;6283;51.330;12.374;2023-04-25T05:41:47;9.57;;;6.77;;
12437;SDS011;6283;51.330;12.374;2023-04-25T05:44:13;9.93;;;6.40;;
12437;SDS011;6283;51.330;12.374;2023-04-25T05:46:40;11.97;;;6.37;;
12437;SDS011;6283;51.330;12.374;2023-04-25T05:49:06;13.10;;;6.23;;
12437;SDS011;6283;51.330;12.374;2023-04-25T05:51:32;10.13;;;5.73;;
12437;SDS011;6283;51.330;12.374;2023-04-25T05:53:57;13.03;;;6.20;;
12437;SDS011;6283;51.330;12.374;2023-04-25T05:56:25;9.17;;;5.87;;
12437;SDS011;6283;51.330;12.374;2023-04-25T05:58:51;13.93;;;6.67;;
12437;SDS011;6283;51.330;12.374;2023-04-25T06:01:17;10.20;;;6.20;;
12437;SDS011;6283;51.330;12.374;2023-04-25T06:03:42;8.83;;;6.23;;
12437;SDS011;6283;51.330;12.374;2023-04-25T06:06:08;7.63;;;6.10;;
12437;SDS011;6283;51.330;12.374;2023-04-25T06:08:34;11.07;;;6.20;;
12437;SDS011;6283;51.330;12.374;2023-04-25T06:11:00;9.40;;;5.83;;
12437;SDS011;6283;51.330;12.374;2023-04-25T06:13:26;11.90;;;6.70;;
12437;SDS011;6283;51.330;12.374;2023-04-25T06:15:51;9.70;;;5.50;;
12437;SDS011;6283;51.330;12.374;2023-04-25T06:18:17;12.57;;;6.07;;
12437;SDS011;6283;51.330;12.374;2023-04-25T06:20:43;9.97;;;6.10;;
12437;SDS011;6283;51.330;12.374;2023-04-25T06:23:08;10.03;;;6.10;;
12437;SDS011;6283;51.330;12.374;2023-04-25T06:25:34;7.27;;;5.43;;
12437;SDS011;6283;51.330;12.374;2023-04-25T06:27:59;12.20;;;6.43;;
12437;SDS011;6283;51.330;12.374;2023-04-25T06:30:25;8.03;;;5.60;;
12437;SDS011;6283;51.330;12.374;2023-04-25T06:32:51;6.53;;;4.97;;
12437;SDS011;6283;51.330;12.374;2023-04-25T06:35:18;11.73;;;5.87;;
12437;SDS011;6283;51.330;12.374;2023-04-25T06:37:44;8.33;;;5.20;;
12437;SDS011;6283;51.330;12.374;2023-04-25T06:40:09;10.23;;;5.63;;
12437;SDS011;6283;51.330;12.374;2023-04-25T06:42:36;8.90;;;5.63;;
12437;SDS011;6283;51.330;12.374;2023-04-25T06:45:01;10.13;;;5.70;;
12437;SDS011;6283;51.330;12.374;2023-04-25T06:47:27;9.33;;;5.13;;
12437;SDS011;6283;51.330;12.374;2023-04-25T06:49:54;8.27;;;5.57;;
12437;SDS011;6283;51.330;12.374;2023-04-25T06:52:20;6.87;;;5.00;;
12437;SDS011;6283;51.330;12.374;2023-04-25T06:54:46;10.37;;;5.30;;
12437;SDS011;6283;51.330;12.374;2023-04-25T06:57:11;8.53;;;5.30;;
12437;SDS011;6283;51.330;12.374;2023-04-25T06:59:37;10.33;;;4.87;;
12437;SDS011;6283;51.330;12.374;2023-04-25T07:02:03;9.07;;;4.73;;
12437;SDS011;6283;51.330;12.374;2023-04-25T07:04:29;8.00;;;4.90;;
12437;SDS011;6283;51.330;12.374;2023-04-25T07:06:55;9.10;;;5.17;;
12437;SDS011;6283;51.330;12.374;2023-04-25T07:09:21;10.00;;;5.53;;
12437;SDS011;6283;51.330;12.374;2023-04-25T07:11:47;9.37;;;6.07;;
12437;SDS011;6283;51.330;12.374;2023-04-25T07:14:13;12.43;;;5.83;;
12437;SDS011;6283;51.330;12.374;2023-04-25T07:16:39;9.10;;;5.50;;
12437;SDS011;6283;51.330;12.374;2023-04-25T07:19:04;8.87;;;5.30;;
12437;SDS011;6283;51.330;12.374;2023-04-25T07:21:30;13.10;;;6.60;;
12437;SDS011;6283;51.330;12.374;2023-04-25T07:23:56;8.97;;;5.90;;
12437;SDS011;6283;51.330;12.374;2023-04-25T07:26:22;8.53;;;5.90;;
12437;SDS011;6283;51.330;12.374;2023-04-25T07:28:48;9.93;;;5.60;;
12437;SDS011;6283;51.330;12.374;2023-04-25T07:31:16;10.07;;;5.97;;
12437;SDS011;6283;51.330;12.374;2023-04-25T07:33:43;10.90;;;5.90;;
12437;SDS011;6283;51.330;12.374;2023-04-25T07:36:10;10.13;;;6.00;;
12437;SDS011;6283;51.330;12.374;2023-04-25T07:38:35;14.33;;;5.97;;
12437;SDS011;6283;51.330;12.374;2023-04-25T07:41:01;8.13;;;5.23;;
12437;SDS011;6283;51.330;12.374;2023-04-25T07:43:27;10.13;;;6.57;;
12437;SDS011;6283;51.330;12.374;2023-04-25T07:45:52;10.80;;;5.97;;
12437;SDS011;6283;51.330;12.374;2023-04-25T07:48:18;12.73;;;6.70;;
12437;SDS011;6283;51.330;12.374;2023-04-25T07:50:44;8.03;;;5.63;;
12437;SDS011;6283;51.330;12.374;2023-04-25T07:53:10;8.80;;;6.27;;
12437;SDS011;6283;51.330;12.374;2023-04-25T07:55:36;11.20;;;6.13;;
12437;SDS011;6283;51.330;12.374;2023-04-25T07:58:04;12.57;;;6.10;;
12437;SDS011;6283;51.330;12.374;2023-04-25T08:00:33;11.73;;;5.77;;
12437;SDS011;6283;51.330;12.374;2023-04-25T08:02:59;10.63;;;6.20;;
12437;SDS011;6283;51.330;12.374;2023-04-25T08:05:25;9.00;;;5.73;;
12437;SDS011;6283;51.330;12.374;2023-04-25T08:07:50;6.40;;;5.43;;
12437;SDS011;6283;51.330;12.374;2023-04-25T08:10:16;6.63;;;4.97;;
12437;SDS011;6283;51.330;12.374;2023-04-25T08:12:42;5.73;;;3.60;;
12437;SDS011;6283;51.330;12.374;2023-04-25T08:15:08;7.90;;;2.57;;
12437;SDS011;6283;51.330;12.374;2023-04-25T08:17:34;7.90;;;2.30;;
12437;SDS011;6283;51.330;12.374;2023-04-25T08:20:00;3.67;;;2.13;;
12437;SDS011;6283;51.330;12.374;2023-04-25T08:22:26;5.77;;;2.57;;
12437;SDS011;6283;51.330;12.374;2023-04-25T08:24:54;5.37;;;2.17;;
12437;SDS011;6283;51.330;12.374;2023-04-25T08:27:20;6.43;;;2.30;;
12437;SDS011;6283;51.330;12.374;2023-04-25T08:29:46;7.03;;;2.40;;
12437;SDS011;6283;51.330;12.374;2023-04-25T08:32:12;5.20;;;2.40;;
12437;SDS011;6283;51.330;12.374;2023-04-25T08:34:37;5.57;;;2.07;;
12437;SDS011;6283;51.330;12.374;2023-04-25T08:37:07;5.30;;;2.40;;
12437;SDS011;6283;51.330;12.374;2023-04-25T08:39:33;8.10;;;2.57;;
12437;SDS011;6283;51.330;12.374;2023-04-25T08:41:59;7.80;;;2.57;;
12437;SDS011;6283;51.330;12.374;2023-04-25T08:44:26;7.63;;;2.30;;
12437;SDS011;6283;51.330;12.374;2023-04-25T08:46:51;6.93;;;1.90;;
12437;SDS011;6283;51.330;12.374;2023-04-25T08:49:18;6.90;;;1.93;;
12437;SDS011;6283;51.330;12.374;2023-04-25T08:51:44;9.73;;;2.50;;
12437;SDS011;6283;51.330;12.374;2023-04-25T08:54:15;9.67;;;2.50;;
12437;SDS011;6283;51.330;12.374;2023-04-25T08:56:43;6.47;;;2.10;;
12437;SDS011;6283;51.330;12.374;2023-04-25T08:59:13;7.00;;;2.17;;
12437;SDS011;6283;51.330;12.374;2023-04-25T09:01:39;3.70;;;1.60;;
12437;SDS011;6283;51.330;12.374;2023-04-25T09:04:05;6.20;;;2.17;;
12437;SDS011;6283;51.330;12.374;2023-04-25T09:06:31;6.97;;;2.30;;
12437;SDS011;6283;51.330;12.374;2023-04-25T09:09:05;15.47;;;2.83;;
12437;SDS011;6283;51.330;12.374;2023-04-25T09:11:32;9.27;;;2.30;;
12437;SDS011;6283;51.330;12.374;2023-04-25T09:17:00;7.10;;;2.20;;
12437;SDS011;6283;51.330;12.374;2023-04-25T09:19:33;7.57;;;2.50;;
12437;SDS011;6283;51.330;12.374;2023-04-25T09:22:05;4.67;;;2.13;;
12437;SDS011;6283;51.330;12.374;2023-04-25T09:24:35;7.40;;;3.03;;
12437;SDS011;6283;51.330;12.374;2023-04-25T09:27:06;5.17;;;2.40;;
12437;SDS011;6283;51.330;12.374;2023-04-25T09:29:34;7.30;;;2.90;;
12437;SDS011;6283;51.330;12.374;2023-04-25T09:34:41;5.97;;;2.33;;
12437;SDS011;6283;51.330;12.374;2023-04-25T09:37:10;6.60;;;2.70;;
12437;SDS011;6283;51.330;12.374;2023-04-25T09:39:37;8.13;;;2.23;;
12437;SDS011;6283;51.330;12.374;2023-04-25T09:42:04;6.80;;;2.90;;
12437;SDS011;6283;51.330;12.374;2023-04-25T09:44:30;6.70;;;2.93;;
12437;SDS011;6283;51.330;12.374;2023-04-25T09:46:56;13.90;;;3.20;;
12437;SDS011;6283;51.330;12.374;2023-04-25T09:49:22;6.27;;;3.00;;
12437;SDS011;6283;51.330;12.374;2023-04-25T09:51:57;8.37;;;2.83;;
12437;SDS011;6283;51.330;12.374;2023-04-25T09:54:25;7.27;;;3.03;;
12437;SDS011;6283;51.330;12.374;2023-04-25T09:56:52;8.00;;;2.53;;
12437;SDS011;6283;51.330;12.374;2023-04-25T09:59:21;7.90;;;2.80;;
12437;SDS011;6283;51.330;12.374;2023-04-25T10:01:50;7.10;;;3.03;;
12437;SDS011;6283;51.330;12.374;2023-04-25T10:04:19;11.60;;;3.37;;
12437;SDS011;6283;51.330;12.374;2023-04-25T10:06:49;12.37;;;3.20;;
12437;SDS011;6283;51.330;12.374;2023-04-25T10:09:17;9.03;;;2.63;;
12437;SDS011;6283;51.330;12.374;2023-04-25T10:11:49;8.93;;;3.20;;
12437;SDS011;6283;51.330;12.374;2023-04-25T10:14:16;8.83;;;3.30;;
12437;SDS011;6283;51.330;12.374;2023-04-25T10:16:43;8.47;;;3.23;;
12437;SDS011;6283;51.330;12.374;2023-04-25T10:19:10;11.63;;;3.57;;
12437;SDS011;6283;51.330;12.374;2023-04-25T10:21:37;7.80;;;3.70;;
12437;SDS011;6283;51.330;12.374;2023-04-25T10:24:11;9.13;;;3.70;;
12437;SDS011;6283;51.330;12.374;2023-04-25T10:26:37;8.73;;;3.87;;
12437;SDS011;6283;51.330;12.374;2023-04-25T10:29:03;10.93;;;3.77;;
12437;SDS011;6283;51.330;12.374;2023-04-25T10:31:30;8.40;;;4.30;;
12437;SDS011;6283;51.330;12.374;2023-04-25T10:33:56;8.00;;;4.03;;
12437;SDS011;6283;51.330;12.374;2023-04-25T10:36:22;10.80;;;4.17;;
12437;SDS011;6283;51.330;12.374;2023-04-25T10:38:52;10.03;;;4.27;;
12437;SDS011;6283;51.330;12.374;2023-04-25T10:41:19;7.67;;;4.40;;
12437;SDS011;6283;51.330;12.374;2023-04-25T10:43:46;12.97;;;3.93;;
12437;SDS011;6283;51.330;12.374;2023-04-25T10:48:38;8.50;;;4.33;;
12437;SDS011;6283;51.330;12.374;2023-04-25T10:51:36;8.30;;;4.70;;
12437;SDS011;6283;51.330;12.374;2023-04-25T10:54:02;11.03;;;4.70;;
12437;SDS011;6283;51.330;12.374;2023-04-25T10:59:04;9.63;;;4.43;;
12437;SDS011;6283;51.330;12.374;2023-04-25T11:01:35;7.30;;;4.63;;
12437;SDS011;6283;51.330;12.374;2023-04-25T11:04:02;7.20;;;4.30;;
12437;SDS011;6283;51.330;12.374;2023-04-25T11:06:29;11.20;;;4.67;;
12437;SDS011;6283;51.330;12.374;2023-04-25T11:08:56;9.80;;;5.03;;
12437;SDS011;6283;51.330;12.374;2023-04-25T11:11:25;10.43;;;4.43;;
12437;SDS011;6283;51.330;12.374;2023-04-25T11:13:51;12.67;;;5.20;;
12437;SDS011;6283;51.330;12.374;2023-04-25T11:16:17;12.50;;;4.93;;
12437;SDS011;6283;51.330;12.374;2023-04-25T11:18:43;6.50;;;4.03;;
12437;SDS011;6283;51.330;12.374;2023-04-25T11:21:09;9.90;;;4.40;;
12437;SDS011;6283;51.330;12.374;2023-04-25T11:23:36;13.20;;;3.87;;
12437;SDS011;6283;51.330;12.374;2023-04-25T11:26:05;9.30;;;4.00;;
12437;SDS011;6283;51.330;12.374;2023-04-25T11:28:30;10.03;;;4.50;;
12437;SDS011;6283;51.330;12.374;2023-04-25T11:30:56;10.00;;;4.13;;
12437;SDS011;6283;51.330;12.374;2023-04-25T11:33:25;9.97;;;4.23;;
12437;SDS011;6283;51.330;12.374;2023-04-25T11:35:55;5.73;;;3.43;;
12437;SDS011;6283;51.330;12.374;2023-04-25T11:38:24;5.87;;;3.10;;
12437;SDS011;6283;51.330;12.374;2023-04-25T11:40:51;7.37;;;2.97;;
12437;SDS011;6283;51.330;12.374;2023-04-25T11:43:19;8.53;;;3.23;;
12437;SDS011;6283;51.330;12.374;2023-04-25T11:45:49;8.93;;;2.87;;
12437;SDS011;6283;51.330;12.374;2023-04-25T11:48:16;8.97;;;3.23;;
12437;SDS011;6283;51.330;12.374;2023-04-25T11:50:42;9.00;;;3.03;;
12437;SDS011;6283;51.330;12.374;2023-04-25T11:53:08;8.80;;;2.87;;
12437;SDS011;6283;51.330;12.374;2023-04-25T11:55:36;8.80;;;2.90;;
12437;SDS011;6283;51.330;12.374;2023-04-25T11:58:02;4.63;;;2.33;;
12437;SDS011;6283;51.330;12.374;2023-04-25T12:00:29;8.83;;;2.70;;
12437;SDS011;6283;51.330;12.374;2023-04-25T12:02:55;6.37;;;2.37;;
12437;SDS011;6283;51.330;12.374;2023-04-25T12:05:26;7.20;;;2.40;;
12437;SDS011;6283;51.330;12.374;2023-04-25T12:07:54;10.67;;;2.60;;
12437;SDS011;6283;51.330;12.374;2023-04-25T12:10:20;7.07;;;2.50;;
12437;SDS011;6283;51.330;12.374;2023-04-25T12:12:46;8.57;;;2.57;;
12437;SDS011;6283;51.330;12.374;2023-04-25T12:17:48;7.23;;;2.10;;
12437;SDS011;6283;51.330;12.374;2023-04-25T12:20:19;4.07;;;2.23;;
12437;SDS011;6283;51.330;12.374;2023-04-25T12:22:48;7.80;;;2.57;;
12437;SDS011;6283;51.330;12.374;2023-04-25T12:25:56;8.00;;;2.63;;
12437;SDS011;6283;51.330;12.374;2023-04-25T12:33:21;6.00;;;2.67;;
12437;SDS011;6283;51.330;12.374;2023-04-25T12:35:47;7.23;;;2.17;;
12437;SDS011;6283;51.330;12.374;2023-04-25T12:38:25;7.67;;;2.40;;
12437;SDS011;6283;51.330;12.374;2023-04-25T12:40:52;6.70;;;2.37;;
12437;SDS011;6283;51.330;12.374;2023-04-25T12:43:19;5.40;;;2.40;;
12437;SDS011;6283;51.330;12.374;2023-04-25T12:45:54;9.13;;;2.43;;
12437;SDS011;6283;51.330;12.374;2023-04-25T12:48:20;8.30;;;2.40;;
12437;SDS011;6283;51.330;12.374;2023-04-25T12:50:46;8.47;;;2.47;;
12437;SDS011;6283;51.330;12.374;2023-04-25T12:53:14;5.17;;;2.57;;
12437;SDS011;6283;51.330;12.374;2023-04-25T12:55:44;5.33;;;2.00;;
12437;SDS011;6283;51.330;12.374;2023-04-25T12:58:17;3.83;;;1.57;;
12437;SDS011;6283;51.330;12.374;2023-04-25T13:00:44;4.90;;;2.10;;
12437;SDS011;6283;51.330;12.374;2023-04-25T13:03:10;3.73;;;1.73;;
12437;SDS011;6283;51.330;12.374;2023-04-25T13:05:37;4.63;;;1.70;;
12437;SDS011;6283;51.330;12.374;2023-04-25T13:08:03;3.43;;;1.43;;
12437;SDS011;6283;51.330;12.374;2023-04-25T13:10:29;4.77;;;1.47;;
12437;SDS011;6283;51.330;12.374;2023-04-25T13:12:55;4.13;;;1.60;;
12437;SDS011;6283;51.330;12.374;2023-04-25T13:15:20;3.90;;;1.50;;
12437;SDS011;6283;51.330;12.374;2023-04-25T13:17:46;1.97;;;1.50;;
12437;SDS011;6283;51.330;12.374;2023-04-25T13:20:12;2.77;;;1.37;;
12437;SDS011;6283;51.330;12.374;2023-04-25T13:22:39;2.10;;;1.10;;
12437;SDS011;6283;51.330;12.374;2023-04-25T13:25:06;6.80;;;1.50;;
12437;SDS011;6283;51.330;12.374;2023-04-25T13:27:33;4.23;;;1.70;;
12437;SDS011;6283;51.330;12.374;2023-04-25T13:30:00;6.00;;;1.93;;
12437;SDS011;6283;51.330;12.374;2023-04-25T13:32:32;2.77;;;1.47;;
12437;SDS011;6283;51.330;12.374;2023-04-25T13:35:04;5.17;;;1.63;;
12437;SDS011;6283;51.330;12.374;2023-04-25T13:37:30;4.37;;;1.63;;
12437;SDS011;6283;51.330;12.374;2023-04-25T13:39:58;3.33;;;1.33;;
12437;SDS011;6283;51.330;12.374;2023-04-25T13:42:25;2.83;;;1.60;;
12437;SDS011;6283;51.330;12.374;2023-04-25T13:44:51;5.23;;;1.47;;
12437;SDS011;6283;51.330;12.374;2023-04-25T13:47:17;5.10;;;2.17;;
12437;SDS011;6283;51.330;12.374;2023-04-25T13:49:42;5.30;;;1.80;;
12437;SDS011;6283;51.330;12.374;2023-04-25T13:52:08;5.53;;;1.50;;
12437;SDS011;6283;51.330;12.374;2023-04-25T13:54:33;3.80;;;1.43;;
12437;SDS011;6283;51.330;12.374;2023-04-25T13:56:59;8.53;;;2.17;;
12437;SDS011;6283;51.330;12.374;2023-04-25T13:59:25;3.13;;;1.40;;
12437;SDS011;6283;51.330;12.374;2023-04-25T14:01:51;2.20;;;1.70;;
12437;SDS011;6283;51.330;12.374;2023-04-25T14:04:17;4.97;;;1.47;;
12437;SDS011;6283;51.330;12.374;2023-04-25T14:06:42;5.10;;;1.77;;
12437;SDS011;6283;51.330;12.374;2023-04-25T14:09:08;6.43;;;1.90;;
12437;SDS011;6283;51.330;12.374;2023-04-25T14:11:35;4.03;;;1.60;;
12437;SDS011;6283;51.330;12.374;2023-04-25T14:14:02;6.07;;;1.40;;
12437;SDS011;6283;51.330;12.374;2023-04-25T14:16:28;3.43;;;1.20;;
12437;SDS011;6283;51.330;12.374;2023-04-25T14:18:55;5.67;;;1.63;;
12437;SDS011;6283;51.330;12.374;2023-04-25T14:21:21;3.37;;;1.80;;
12437;SDS011;6283;51.330;12.374;2023-04-25T14:23:46;3.13;;;1.43;;
12437;SDS011;6283;51.330;12.374;2023-04-25T14:26:12;2.70;;;1.50;;
12437;SDS011;6283;51.330;12.374;2023-04-25T14:28:38;1.73;;;1.40;;
12437;SDS011;6283;51.330;12.374;2023-04-25T14:31:04;1.60;;;1.17;;
12437;SDS011;6283;51.330;12.374;2023-04-25T14:33:29;4.33;;;1.40;;
12437;SDS011;6283;51.330;12.374;2023-04-25T14:35:55;2.00;;;1.20;;
12437;SDS011;6283;51.330;12.374;2023-04-25T14:38:21;3.27;;;1.40;;
12437;SDS011;6283;51.330;12.374;2023-04-25T14:40:51;3.77;;;1.40;;
12437;SDS011;6283;51.330;12.374;2023-04-25T14:43:18;2.30;;;1.20;;
12437;SDS011;6283;51.330;12.374;2023-04-25T14:45:44;6.50;;;1.60;;
12437;SDS011;6283;51.330;12.374;2023-04-25T14:48:10;3.43;;;1.67;;
12437;SDS011;6283;51.330;12.374;2023-04-25T14:50:36;5.37;;;1.77;;
12437;SDS011;6283;51.330;12.374;2023-04-25T14:53:01;3.47;;;1.60;;
12437;SDS011;6283;51.330;12.374;2023-04-25T14:55:27;9.23;;;1.67;;
12437;SDS011;6283;51.330;12.374;2023-04-25T14:57:53;4.77;;;1.50;;
12437;SDS011;6283;51.330;12.374;2023-04-25T15:00:20;4.23;;;1.80;;